LiveATC.Net - Listen to live air traffic control over the Internet!


ICAO: YPJT  IATA: JAD   Airport: Perth Jandakot Airport
City: Perth   State/Province: Western Australia
Country: Australia   Continent: Oceania
YPJT METAR Weather: YPJT 171200Z AUTO 20006KT 9999 // NCD 23/14 Q1014 RF00.0/000.0
YPJT Flight Activity (FlightAware)
YPJT Webcam:  (Airport Webcams) 

YPJT Gnd/Twr/Radar
Feed Status: UP   Listeners: 0
Listen in your browser - HTML5 player (in browser, HTML5)
Click here to listen with your own player (launches your MP3 player)
YPJT Gnd/Twr/Radar Audio Archives
FacilityFrequency
Jandakot Ground124.300
Jandakot Tower119.400
Jandakot Tower/CTAF118.100
Perth Radar135.250
Jandakot Airport web page

NOTICE

Unauthorized use prohibited. See LiveATC.net Terms of Service


Find LiveATC Audio Streams


Airport/ARTCC Code

Frequency Search
(e.g., 124.400, 128.75)
Site-wide search
 


Browse LiveATC Feeds
Top 50 LiveATC Feeds
LiveATC Feed Map
Bad Weather Areas

LiveATC FAQ
Offer LiveATC feed
Contact LiveATC.net
Press Inquiries

LiveATC on iPhone
LiveATC on Android

Windows Phone
Windows 8/10

LiveATC Mobile
(Mobile browser)

ATC Audio Archives
Interesting Recordings

LiveATC Forums


Home Page
About LiveATC.net
Make a Donation
Terms of Use
Privacy Policy

Canadian Air Freqs

AIRMETs/SIGMETs

FAA Airport Status
Nat'l Airspace Status
Arrival Demand Charts


Server Software By:
Icecast.org
Liquidsoap